Time;durP1;ratioP1;P1;durP2;ratioP2;P2;SDS_P1;SDS_P2;PMS_P1;PMS_P2;Temp;Humidity;BMP_temperature;BMP_pressure;BME280_temperature;BME280_humidity;BME280_pressure;Samples;Min_cycle;Max_cycle;Signal;HPM_P1;HPM_P2
2024/02/26 00:02:23;;;;;;;137.57;90.82;;;18.50;73.90;;;;;;5053083;28;20542;-64
2024/02/26 00:04:49;;;;;;;137.45;91.53;;;18.50;73.80;;;;;;5053182;28;20045;-64
2024/02/26 00:07:15;;;;;;;141.80;93.28;;;18.60;73.90;;;;;;5052841;28;20397;-64
2024/02/26 00:09:41;;;;;;;141.38;91.63;;;18.60;74.00;;;;;;5052696;28;20079;-64
2024/02/26 00:12:06;;;;;;;129.90;87.82;;;18.60;74.00;;;;;;5052488;28;20033;-64
2024/02/26 00:14:33;;;;;;;134.82;91.00;;;18.50;74.00;;;;;;5053112;28;20021;-63
2024/02/26 00:16:58;;;;;;;136.43;89.60;;;18.60;74.10;;;;;;5052880;28;20031;-63
2024/02/26 00:19:24;;;;;;;136.30;88.55;;;18.60;74.30;;;;;;5052564;28;20099;-63
2024/02/26 00:21:50;;;;;;;129.85;87.45;;;18.60;74.20;;;;;;5052657;28;20431;-63
2024/02/26 00:24:15;;;;;;;126.53;86.00;;;18.60;74.10;;;;;;5052748;28;20017;-63
2024/02/26 00:26:41;;;;;;;131.82;86.40;;;18.60;74.10;;;;;;5052458;28;20025;-63
2024/02/26 00:29:06;;;;;;;129.18;86.13;;;18.60;74.50;;;;;;5052517;28;20112;-62
2024/02/26 00:31:32;;;;;;;128.70;84.15;;;18.60;74.40;;;;;;5052189;28;20396;-63
2024/02/26 00:33:58;;;;;;;127.85;83.97;;;18.60;74.70;;;;;;5052232;28;20017;-64
2024/02/26 00:36:23;;;;;;;128.15;84.53;;;18.60;74.70;;;;;;5052292;28;20585;-63
2024/02/26 00:38:50;;;;;;;127.63;83.97;;;18.60;74.50;;;;;;5052149;28;20518;-63
2024/02/26 00:41:20;;;;;;;123.70;81.63;;;18.60;74.40;;;;;;5051767;28;20056;-63
2024/02/26 00:43:46;;;;;;;125.90;84.75;;;18.60;74.60;;;;;;5052089;28;20051;-64
2024/02/26 00:46:11;;;;;;;126.78;81.75;;;18.60;74.60;;;;;;5052447;28;20028;-64
2024/02/26 00:48:37;;;;;;;123.93;81.38;;;18.60;74.80;;;;;;5052377;28;20037;-64
2024/02/26 00:51:05;;;;;;;125.75;82.50;;;18.60;74.70;;;;;;5052001;28;20021;-64
2024/02/26 00:53:31;;;;;;;118.60;79.03;;;18.60;74.90;;;;;;5051998;28;20159;-64
2024/02/26 00:55:58;;;;;;;116.10;76.45;;;18.50;75.00;;;;;;5052119;28;20125;-64
2024/02/26 00:58:24;;;;;;;120.38;80.30;;;18.60;75.00;;;;;;5052310;28;20095;-64
2024/02/26 01:00:50;;;;;;;119.85;78.88;;;18.60;74.90;;;;;;5051907;28;20029;-64
2024/02/26 01:03:17;;;;;;;115.18;77.95;;;18.60;75.00;;;;;;5051984;28;20112;-65
2024/02/26 01:05:42;;;;;;;115.60;76.78;;;18.60;74.80;;;;;;5052118;28;20107;-63
2024/02/26 01:08:08;;;;;;;114.90;75.88;;;18.60;75.10;;;;;;5051904;28;20064;-63
2024/02/26 01:10:34;;;;;;;117.97;78.70;;;18.60;75.30;;;;;;5051746;28;20044;-64
2024/02/26 01:13:00;;;;;;;114.57;76.03;;;18.60;75.20;;;;;;5051857;28;20100;-63
2024/02/26 01:15:25;;;;;;;113.18;74.53;;;18.60;75.00;;;;;;5051795;28;20539;-63
2024/02/26 01:17:51;;;;;;;114.18;74.20;;;18.60;74.90;;;;;;5051791;28;20029;-63
2024/02/26 01:20:17;;;;;;;109.03;74.32;;;18.60;75.00;;;;;;5051806;28;20079;-62
2024/02/26 01:22:43;;;;;;;115.03;75.88;;;18.70;75.10;;;;;;5051526;28;20029;-64
2024/02/26 01:25:09;;;;;;;111.72;74.32;;;18.70;75.00;;;;;;5051974;28;20052;-66
2024/02/26 01:27:36;;;;;;;109.10;70.63;;;18.70;75.00;;;;;;5051688;28;20057;-67
2024/02/26 01:30:06;;;;;;;103.03;71.03;;;18.70;74.80;;;;;;5051160;28;20025;-64
2024/02/26 01:32:32;;;;;;;103.10;68.07;;;18.60;74.80;;;;;;5051380;28;20017;-63
2024/02/26 01:34:58;;;;;;;102.15;69.63;;;18.70;74.80;;;;;;5051506;28;20488;-65
2024/02/26 01:37:23;;;;;;;107.63;71.47;;;18.70;75.00;;;;;;5051496;28;20036;-63
2024/02/26 01:39:49;;;;;;;107.88;70.03;;;18.70;75.00;;;;;;5051472;28;20070;-63
2024/02/26 01:42:14;;;;;;;106.20;68.43;;;18.70;75.10;;;;;;5051430;28;20032;-63
2024/02/26 01:44:40;;;;;;;104.53;68.88;;;18.70;75.10;;;;;;5051540;28;20021;-62
2024/02/26 01:47:10;;;;;;;102.88;68.60;;;18.70;75.10;;;;;;5051313;28;20396;-61
2024/02/26 01:49:36;;;;;;;98.43;65.72;;;18.70;75.20;;;;;;5051231;28;20086;-61
2024/02/26 01:52:03;;;;;;;98.32;63.88;;;18.70;75.20;;;;;;5050867;28;20029;-62
2024/02/26 01:54:30;;;;;;;95.45;64.93;;;18.70;75.10;;;;;;5051113;28;20057;-63
2024/02/26 01:56:56;;;;;;;98.00;66.60;;;18.70;75.10;;;;;;5050941;28;20502;-63
2024/02/26 01:59:22;;;;;;;95.47;64.75;;;18.70;75.00;;;;;;5050876;28;20024;-63
2024/02/26 02:01:54;;;;;;;99.30;64.55;;;18.70;75.00;;;;;;5050968;28;20476;-63
2024/02/26 02:04:20;;;;;;;95.63;61.38;;;18.70;75.10;;;;;;5051116;28;20108;-62
2024/02/26 02:06:46;;;;;;;98.05;64.38;;;18.70;75.30;;;;;;5051244;28;20037;-64
2024/02/26 02:09:12;;;;;;;96.55;64.22;;;18.70;75.30;;;;;;5051485;28;20507;-60
2024/02/26 02:11:37;;;;;;;93.53;61.88;;;18.70;75.40;;;;;;5051152;28;20452;-61
2024/02/26 02:14:03;;;;;;;92.72;61.17;;;18.70;75.40;;;;;;5051230;28;20025;-61
2024/02/26 02:16:29;;;;;;;97.22;61.08;;;18.70;75.50;;;;;;5051039;28;20028;-63
2024/02/26 02:18:54;;;;;;;92.57;59.22;;;18.70;75.30;;;;;;5051130;28;20032;-63
2024/02/26 02:21:20;;;;;;;90.18;58.42;;;18.70;75.40;;;;;;5050863;28;20473;-65
2024/02/26 02:23:46;;;;;;;94.70;60.35;;;18.70;75.40;;;;;;5051047;28;20036;-63
2024/02/26 02:26:15;;;;;;;86.65;58.38;;;18.70;75.50;;;;;;5050967;28;20025;-63
2024/02/26 02:28:41;;;;;;;86.70;57.58;;;18.70;75.40;;;;;;5051005;28;20036;-62
2024/02/26 02:31:07;;;;;;;88.72;57.83;;;18.70;75.30;;;;;;5051006;28;20052;-62
2024/02/26 02:33:34;;;;;;;86.95;57.10;;;18.70;75.50;;;;;;5050645;28;20029;-63
2024/02/26 02:36:00;;;;;;;82.95;56.40;;;18.60;75.50;;;;;;5051038;28;20036;-62
2024/02/26 02:38:27;;;;;;;81.30;55.47;;;18.70;75.40;;;;;;5050900;28;20025;-63
2024/02/26 02:40:53;;;;;;;88.13;56.00;;;18.70;75.30;;;;;;5051183;28;20110;-63
2024/02/26 02:43:18;;;;;;;86.90;56.17;;;18.70;75.50;;;;;;5054865;28;20493;-63
2024/02/26 02:45:44;;;;;;;85.90;55.00;;;18.70;75.50;;;;;;5054394;28;20492;-63
2024/02/26 02:48:11;;;;;;;83.03;55.50;;;18.70;75.50;;;;;;5053245;28;20037;-64
2024/02/26 02:50:37;;;;;;;82.32;54.20;;;18.70;75.50;;;;;;5054501;28;20033;-64
2024/02/26 02:53:02;;;;;;;85.18;55.55;;;18.70;75.50;;;;;;5054460;28;20496;-64
2024/02/26 02:55:28;;;;;;;80.93;54.63;;;18.70;75.50;;;;;;5054464;28;20028;-64
2024/02/26 02:57:53;;;;;;;76.63;52.00;;;18.80;75.50;;;;;;5053218;28;20116;-64
2024/02/26 03:00:19;;;;;;;79.78;53.92;;;18.70;75.60;;;;;;5054428;28;20033;-64
2024/02/26 03:02:48;;;;;;;81.55;53.15;;;18.80;75.50;;;;;;5054196;28;20043;-64
2024/02/26 03:05:13;;;;;;;75.47;50.10;;;18.80;75.60;;;;;;5054707;28;20059;-63
2024/02/26 03:07:39;;;;;;;80.63;52.55;;;18.80;75.50;;;;;;5054506;28;20020;-62
2024/02/26 03:10:05;;;;;;;76.55;51.08;;;18.80;75.70;;;;;;5054275;28;20072;-62
2024/02/26 03:12:30;;;;;;;73.20;49.92;;;18.80;75.80;;;;;;5053816;28;20087;-62
2024/02/26 03:14:56;;;;;;;78.18;52.08;;;18.80;75.70;;;;;;5054017;28;20100;-63
2024/02/26 03:17:24;;;;;;;73.85;50.83;;;18.70;75.80;;;;;;5053701;28;20661;-63
2024/02/26 03:19:53;;;;;;;75.03;50.35;;;18.80;75.80;;;;;;5053762;28;20092;-62
2024/02/26 03:22:18;;;;;;;76.18;51.00;;;18.80;75.90;;;;;;5053920;28;20056;-61
2024/02/26 03:24:44;;;;;;;72.82;48.53;;;18.80;76.10;;;;;;5053922;28;20029;-61
2024/02/26 03:27:10;;;;;;;74.07;49.58;;;18.80;76.00;;;;;;5053895;28;20052;-63
2024/02/26 03:29:37;;;;;;;69.63;47.42;;;18.80;76.00;;;;;;5053771;28;20028;-63
2024/02/26 03:32:03;;;;;;;72.20;48.88;;;18.80;76.10;;;;;;5053481;28;20027;-63
2024/02/26 03:34:30;;;;;;;75.35;47.97;;;18.80;76.20;;;;;;5053922;28;20697;-62
2024/02/26 03:36:56;;;;;;;71.00;46.70;;;18.80;76.00;;;;;;5053751;28;20032;-61
2024/02/26 03:39:22;;;;;;;70.25;47.85;;;18.80;76.10;;;;;;5053664;28;20092;-61
2024/02/26 03:41:48;;;;;;;68.47;46.35;;;18.80;76.10;;;;;;5053432;28;20032;-62
2024/02/26 03:44:13;;;;;;;64.75;43.53;;;18.80;76.20;;;;;;5053619;28;20020;-62
2024/02/26 03:46:39;;;;;;;65.55;44.53;;;18.80;76.10;;;;;;5053505;28;20032;-62
2024/02/26 03:49:05;;;;;;;65.95;44.55;;;18.70;76.00;;;;;;5053716;28;20064;-62
2024/02/26 03:51:31;;;;;;;67.47;45.83;;;18.80;76.00;;;;;;5053349;28;20025;-62
2024/02/26 03:53:58;;;;;;;66.40;44.70;;;18.70;76.00;;;;;;5052591;28;20059;-62
2024/02/26 03:56:25;;;;;;;66.57;44.25;;;18.70;76.00;;;;;;5053397;28;20029;-64
2024/02/26 03:58:50;;;;;;;63.33;43.08;;;18.70;76.10;;;;;;5053213;28;20392;-65
2024/02/26 04:01:16;;;;;;;65.28;43.33;;;18.70;76.20;;;;;;5052833;28;20021;-64
2024/02/26 04:03:42;;;;;;;66.88;44.40;;;18.70;76.30;;;;;;5053082;28;20029;-65
2024/02/26 04:06:11;;;;;;;65.18;42.30;;;18.70;76.20;;;;;;5053375;28;20488;-64
2024/02/26 04:08:37;;;;;;;67.45;43.00;;;18.70;76.40;;;;;;5053159;28;20029;-65
2024/02/26 04:11:07;;;;;;;64.13;41.72;;;18.70;76.40;;;;;;5052874;28;20421;-65
2024/02/26 04:13:33;;;;;;;65.45;42.67;;;18.70;76.40;;;;;;5052780;28;20029;-65
2024/02/26 04:16:01;;;;;;;60.40;40.70;;;18.70;76.30;;;;;;5052825;28;20021;-61
2024/02/26 04:18:27;;;;;;;62.85;41.65;;;18.80;76.40;;;;;;5052830;28;20389;-61
2024/02/26 04:20:53;;;;;;;58.08;39.38;;;18.80;76.40;;;;;;5052626;28;20029;-61
2024/02/26 04:23:18;;;;;;;58.50;39.90;;;18.80;76.40;;;;;;5052697;28;20021;-62
2024/02/26 04:25:44;;;;;;;60.33;39.95;;;18.80;76.40;;;;;;5052483;28;20036;-61
2024/02/26 04:28:10;;;;;;;58.78;39.83;;;18.80;76.40;;;;;;5052288;28;20508;-61
2024/02/26 04:30:36;;;;;;;59.65;40.20;;;18.80;76.30;;;;;;5052162;28;20109;-61
2024/02/26 04:33:02;;;;;;;56.85;37.10;;;18.80;76.10;;;;;;5052476;28;20049;-61
2024/02/26 04:35:27;;;;;;;58.30;38.80;;;18.80;75.90;;;;;;5052617;28;20024;-61
2024/02/26 04:37:53;;;;;;;57.70;38.35;;;18.80;75.80;;;;;;5052478;28;20401;-61
2024/02/26 04:40:18;;;;;;;55.97;38.58;;;18.80;75.80;;;;;;5052189;28;20021;-61
2024/02/26 04:42:44;;;;;;;54.35;36.97;;;18.80;75.70;;;;;;5052064;28;20025;-61
2024/02/26 04:45:10;;;;;;;53.88;36.75;;;18.80;75.80;;;;;;5052481;28;20046;-61
2024/02/26 04:47:35;;;;;;;54.85;37.50;;;18.80;75.80;;;;;;5052426;28;20401;-61
2024/02/26 04:50:01;;;;;;;54.75;36.75;;;18.90;75.80;;;;;;5052295;28;20048;-61
2024/02/26 04:52:27;;;;;;;51.70;36.05;;;18.80;75.90;;;;;;5051909;28;20396;-64
2024/02/26 04:54:52;;;;;;;56.55;36.90;;;18.80;76.00;;;;;;5052196;28;20126;-64
2024/02/26 04:57:18;;;;;;;49.83;34.65;;;18.90;76.20;;;;;;5052214;28;20477;-64
2024/02/26 04:59:45;;;;;;;50.05;34.60;;;18.80;76.20;;;;;;5052147;28;20265;-64
2024/02/26 05:02:11;;;;;;;52.90;34.25;;;18.80;76.10;;;;;;5051880;28;20044;-64
2024/02/26 05:04:37;;;;;;;52.13;36.25;;;18.80;76.10;;;;;;5050849;28;20029;-64
2024/02/26 05:07:03;;;;;;;49.25;33.38;;;18.80;76.30;;;;;;5051820;28;20079;-63
2024/02/26 05:09:29;;;;;;;54.05;35.17;;;18.80;76.10;;;;;;5051545;28;20113;-64
2024/02/26 05:11:55;;;;;;;48.63;33.55;;;18.80;76.30;;;;;;5051347;28;20028;-61
2024/02/26 05:14:21;;;;;;;51.75;34.35;;;18.80;76.40;;;;;;5051162;28;20028;-61
2024/02/26 05:16:47;;;;;;;47.58;32.65;;;18.80;76.40;;;;;;5051836;28;20044;-61
2024/02/26 05:19:13;;;;;;;51.05;32.47;;;18.80;76.40;;;;;;5051659;28;20029;-63
2024/02/26 05:21:40;;;;;;;50.63;33.53;;;18.70;76.50;;;;;;5051516;28;20079;-62
2024/02/26 05:24:05;;;;;;;46.83;31.08;;;18.70;76.60;;;;;;5051598;28;20027;-62
2024/02/26 05:26:31;;;;;;;46.38;30.95;;;18.70;76.70;;;;;;5051591;28;20021;-62
2024/02/26 05:29:00;;;;;;;47.08;31.35;;;18.80;76.70;;;;;;5051975;28;20468;-62
2024/02/26 05:31:26;;;;;;;49.25;31.30;;;18.80;76.70;;;;;;5051507;28;20029;-60
2024/02/26 05:33:52;;;;;;;46.45;31.23;;;18.80;76.80;;;;;;5051635;28;20108;-60
2024/02/26 05:36:22;;;;;;;44.25;29.35;;;18.70;76.90;;;;;;5051430;28;20503;-60
2024/02/26 05:38:48;;;;;;;48.22;31.55;;;18.70;77.10;;;;;;5051543;28;20035;-61
2024/02/26 05:41:23;;;;;;;44.50;30.10;;;18.70;77.20;;;;;;5051187;28;20025;-62
2024/02/26 05:43:51;;;;;;;44.10;29.85;;;18.70;77.30;;;;;;5051617;28;20032;-61
2024/02/26 05:46:20;;;;;;;41.22;28.42;;;18.80;77.40;;;;;;5050774;28;20031;-60
2024/02/26 05:48:51;;;;;;;47.33;29.63;;;18.80;77.50;;;;;;5051499;28;20091;-61
2024/02/26 05:51:16;;;;;;;41.73;27.77;;;18.80;77.40;;;;;;5051127;28;20021;-62
2024/02/26 05:53:42;;;;;;;46.45;28.48;;;18.90;77.50;;;;;;5071243;23;20067;-65
2024/02/26 05:56:08;;;;;;;42.00;27.88;;;18.80;77.40;;;;;;5049619;28;20029;-64
2024/02/26 05:58:33;;;;;;;39.97;22.83;;;18.80;77.30;;;;;;5049842;28;20055;-65
2024/02/26 06:01:00;;;;;;;13.32;9.48;;;18.80;70.40;;;;;;5049911;28;20419;-65
2024/02/26 06:03:26;;;;;;;13.15;8.70;;;17.50;52.40;;;;;;5050025;28;20032;-65
2024/02/26 06:05:52;;;;;;;11.75;8.52;;;16.50;51.70;;;;;;5050562;28;20021;-64
2024/02/26 06:08:17;;;;;;;9.52;7.68;;;15.80;53.60;;;;;;5050423;28;20108;-66
2024/02/26 06:10:43;;;;;;;11.40;7.85;;;15.40;53.90;;;;;;5050219;28;20033;-64
2024/02/26 06:13:08;;;;;;;30.20;17.48;;;15.60;62.40;;;;;;5050159;28;20032;-64
2024/02/26 06:15:34;;;;;;;33.55;21.08;;;16.00;69.60;;;;;;5050684;28;20025;-64
2024/02/26 06:18:00;;;;;;;29.73;19.38;;;16.40;72.20;;;;;;5054388;28;20025;-65
2024/02/26 06:20:25;;;;;;;33.15;18.90;;;16.70;73.50;;;;;;5054421;28;20104;-64
2024/02/26 06:22:51;;;;;;;35.35;19.98;;;16.90;74.40;;;;;;5054286;28;20017;-65
2024/02/26 06:25:17;;;;;;;32.92;18.33;;;17.10;74.60;;;;;;5053409;28;20029;-65
2024/02/26 06:27:42;;;;;;;30.77;18.73;;;17.30;74.90;;;;;;5053973;28;20082;-66
2024/02/26 06:30:10;;;;;;;32.55;18.98;;;17.40;75.10;;;;;;5053148;28;20021;-65
2024/02/26 06:32:36;;;;;;;36.05;19.40;;;17.50;75.20;;;;;;5054474;28;20028;-66
2024/02/26 06:35:06;;;;;;;31.20;17.80;;;17.60;75.20;;;;;;5054743;28;20029;-66
2024/02/26 06:37:33;;;;;;;32.28;17.63;;;17.70;75.30;;;;;;5054655;28;20136;-64
2024/02/26 06:39:59;;;;;;;27.95;18.13;;;17.70;75.30;;;;;;5054637;28;20025;-67
2024/02/26 06:42:25;;;;;;;26.98;17.77;;;17.80;75.30;;;;;;5054061;28;20017;-69
2024/02/26 06:44:50;;;;;;;33.30;17.58;;;17.90;75.20;;;;;;5054284;28;20036;-65
2024/02/26 06:47:16;;;;;;;28.10;16.63;;;18.00;75.20;;;;;;5054997;28;20025;-65
2024/02/26 06:49:42;;;;;;;28.10;17.35;;;18.00;75.00;;;;;;5054678;28;20454;-65
2024/02/26 06:52:07;;;;;;;32.30;17.92;;;18.00;74.70;;;;;;5055008;28;20029;-65
2024/02/26 06:54:33;;;;;;;27.55;15.88;;;18.00;74.60;;;;;;5054770;28;20432;-66
2024/02/26 06:56:59;;;;;;;30.80;16.15;;;18.00;74.50;;;;;;5054679;28;20397;-66
2024/02/26 06:59:24;;;;;;;27.60;16.85;;;18.10;74.40;;;;;;5054558;28;20393;-65
2024/02/26 07:01:50;;;;;;;26.70;15.75;;;18.10;74.30;;;;;;5054163;28;20108;-66
2024/02/26 07:04:16;;;;;;;29.27;17.80;;;18.20;74.30;;;;;;5055041;28;20021;-65
2024/02/26 07:06:42;;;;;;;31.88;17.45;;;18.20;74.30;;;;;;5054885;28;20388;-65
2024/02/26 07:09:08;;;;;;;32.08;17.20;;;18.20;74.30;;;;;;5053267;28;20439;-66
2024/02/26 07:11:34;;;;;;;26.17;15.40;;;18.30;74.20;;;;;;5053043;28;20099;-66
2024/02/26 07:14:01;;;;;;;29.08;17.05;;;18.20;74.10;;;;;;5054438;28;20032;-65
2024/02/26 07:16:27;;;;;;;23.30;15.15;;;18.30;74.00;;;;;;5054401;28;20044;-66
2024/02/26 07:18:52;;;;;;;29.38;15.55;;;18.30;73.90;;;;;;5054433;28;20024;-66
2024/02/26 07:21:18;;;;;;;24.38;15.32;;;18.40;73.80;;;;;;5054605;28;20066;-66
2024/02/26 07:23:44;;;;;;;27.38;15.43;;;18.40;73.70;;;;;;5055333;28;20333;-66
2024/02/26 07:26:11;;;;;;;23.77;14.95;;;18.50;73.60;;;;;;5054510;28;20100;-65
2024/02/26 07:28:37;;;;;;;23.65;14.57;;;18.50;73.50;;;;;;5053279;28;20033;-66
2024/02/26 07:31:03;;;;;;;23.02;14.57;;;18.50;73.40;;;;;;5054436;28;20032;-65
2024/02/26 07:33:29;;;;;;;26.67;14.80;;;18.50;73.30;;;;;;5054928;28;20020;-66
2024/02/26 07:35:54;;;;;;;23.52;13.98;;;18.50;73.20;;;;;;5054623;28;20444;-66
2024/02/26 07:38:20;;;;;;;24.17;14.07;;;18.60;73.20;;;;;;5054079;28;20032;-66
2024/02/26 07:40:45;;;;;;;20.67;14.45;;;18.60;73.10;;;;;;5053649;28;20021;-66
2024/02/26 07:43:11;;;;;;;24.85;14.32;;;18.60;73.10;;;;;;5053666;28;20052;-66
2024/02/26 07:45:37;;;;;;;20.60;14.45;;;18.60;73.00;;;;;;5053703;28;20025;-66
2024/02/26 07:48:02;;;;;;;23.42;14.15;;;18.60;72.90;;;;;;5054097;28;20040;-65
2024/02/26 07:50:28;;;;;;;21.00;14.10;;;18.60;72.90;;;;;;5053910;28;20029;-63
2024/02/26 07:52:54;;;;;;;23.63;14.10;;;18.70;72.80;;;;;;5054106;28;20035;-66
2024/02/26 07:55:19;;;;;;;22.15;12.98;;;18.60;72.80;;;;;;5053864;28;20039;-66
2024/02/26 07:57:45;;;;;;;21.10;12.68;;;18.70;72.70;;;;;;5054363;28;20025;-66
2024/02/26 08:00:11;;;;;;;20.27;13.15;;;18.70;72.70;;;;;;5054112;28;20021;-66
2024/02/26 08:02:37;;;;;;;20.27;13.57;;;18.70;72.60;;;;;;5054157;28;20029;-66
2024/02/26 08:05:03;;;;;;;22.45;13.90;;;18.70;72.60;;;;;;5053587;28;20338;-66
2024/02/26 08:07:28;;;;;;;19.40;12.32;;;18.70;72.60;;;;;;5054321;28;20044;-66
2024/02/26 08:09:54;;;;;;;18.63;12.45;;;18.70;72.60;;;;;;5053617;28;20532;-67
2024/02/26 08:12:20;;;;;;;20.05;12.80;;;18.80;72.60;;;;;;5053380;28;20036;-66
2024/02/26 08:14:46;;;;;;;18.02;12.88;;;18.80;72.60;;;;;;5053536;28;20068;-66
2024/02/26 08:17:11;;;;;;;19.08;12.80;;;18.70;72.60;;;;;;5053455;28;20139;-66
2024/02/26 08:19:37;;;;;;;17.20;11.70;;;18.80;72.60;;;;;;5053700;28;20415;-67
2024/02/26 08:22:03;;;;;;;20.98;12.70;;;18.70;72.50;;;;;;5053127;28;20024;-67
2024/02/26 08:24:28;;;;;;;18.50;12.23;;;18.80;72.50;;;;;;5052810;28;20382;-66
2024/02/26 08:26:54;;;;;;;18.73;12.27;;;18.80;72.50;;;;;;5053003;28;20028;-66
2024/02/26 08:29:20;;;;;;;20.02;11.98;;;18.80;72.50;;;;;;5052849;28;20048;-66
2024/02/26 08:31:45;;;;;;;19.35;11.40;;;18.80;72.50;;;;;;5052781;28;20550;-66
2024/02/26 08:34:11;;;;;;;18.45;11.52;;;18.80;72.40;;;;;;5052801;28;20016;-66
2024/02/26 08:36:37;;;;;;;15.98;10.82;;;18.80;72.50;;;;;;5052980;28;20025;-66
2024/02/26 08:39:03;;;;;;;19.13;11.25;;;18.80;72.50;;;;;;5052879;28;20032;-67
2024/02/26 08:41:29;;;;;;;13.32;8.48;;;18.80;72.50;;;;;;5052718;28;20100;-67
2024/02/26 08:43:54;;;;;;;10.73;7.45;;;17.70;55.60;;;;;;5052335;28;20021;-67
2024/02/26 08:46:20;;;;;;;10.35;7.65;;;;;;;;;;5052298;28;20097;-67
2024/02/26 08:48:46;;;;;;;10.65;7.25;;;14.90;56.30;;;;;;5051565;28;20120;-66
2024/02/26 08:51:13;;;;;;;13.95;8.50;;;14.70;57.60;;;;;;5051174;28;20104;-68
2024/02/26 08:53:38;;;;;;;11.63;7.75;;;14.40;57.10;;;;;;5051483;28;20036;-66
2024/02/26 08:56:05;;;;;;;12.50;8.02;;;14.00;57.40;;;;;;5051688;28;20503;-64
2024/02/26 08:58:31;;;;;;;10.32;7.82;;;13.80;58.50;;;;;;5051222;28;20148;-64
2024/02/26 09:00:56;;;;;;;12.80;7.90;;;14.00;59.90;;;;;;5051178;28;20079;-63
2024/02/26 09:03:22;;;;;;;10.75;7.20;;;14.60;63.40;;;;;;5052244;28;20028;-63
2024/02/26 09:05:48;;;;;;;10.55;7.30;;;15.00;65.20;;;;;;5052647;28;20025;-63
2024/02/26 09:08:14;;;;;;;8.50;6.22;;;15.40;66.10;;;;;;5052098;28;20024;-62
2024/02/26 09:10:40;;;;;;;11.15;5.90;;;15.70;66.80;;;;;;5051554;28;20048;-61
2024/02/26 09:13:05;;;;;;;13.60;6.78;;;16.00;67.20;;;;;;5050346;28;20098;-62
2024/02/26 09:15:31;;;;;;;9.20;5.95;;;16.10;67.40;;;;;;5049178;28;20028;-64
2024/02/26 09:17:57;;;;;;;11.65;6.05;;;16.30;67.60;;;;;;5050597;28;20025;-63
2024/02/26 09:20:23;;;;;;;17.48;6.35;;;16.50;68.00;;;;;;5050434;28;20028;-62
2024/02/26 09:22:50;;;;;;;72.05;16.65;;;16.60;68.10;;;;;;5050621;28;20033;-61
2024/02/26 09:25:17;;;;;;;58.33;16.02;;;16.70;68.60;;;;;;5050636;28;20488;-63
2024/02/26 09:27:46;;;;;;;55.83;13.63;;;16.90;68.70;;;;;;5050223;28;20025;-63
2024/02/26 09:30:13;;;;;;;39.03;11.45;;;16.90;68.80;;;;;;5048741;28;20154;-63
2024/02/26 09:32:38;;;;;;;38.58;10.90;;;17.00;68.70;;;;;;5048732;28;20053;-63
2024/02/26 09:35:08;;;;;;;29.08;9.65;;;17.10;68.70;;;;;;5049460;28;20040;-64
2024/02/26 09:37:34;;;;;;;30.35;10.00;;;17.10;68.60;;;;;;5049615;28;20021;-64
2024/02/26 09:40:00;;;;;;;32.97;10.60;;;17.20;68.60;;;;;;5049754;28;20040;-64
2024/02/26 09:42:26;;;;;;;25.67;9.00;;;17.30;68.50;;;;;;5049781;28;20108;-64
2024/02/26 09:44:57;;;;;;;27.88;9.10;;;17.40;68.50;;;;;;5050544;28;20047;-64
2024/02/26 09:47:23;;;;;;;;;;;17.40;68.50;;;;;;5051399;28;20073;-64
2024/02/26 09:49:53;;;;;;;21.85;8.77;;;17.50;68.50;;;;;;5050891;28;19999;-64
2024/02/26 09:52:20;;;;;;;26.88;9.13;;;17.50;68.40;;;;;;5050239;28;20504;-64
2024/02/26 09:54:49;;;;;;;32.83;9.82;;;17.50;68.50;;;;;;5050512;28;20151;-64
2024/02/26 09:57:16;;;;;;;23.92;8.48;;;17.50;68.40;;;;;;5051225;28;20044;-64
2024/02/26 09:59:43;;;;;;;25.80;8.63;;;17.60;68.50;;;;;;5050888;28;20040;-65
2024/02/26 10:02:13;;;;;;;22.73;7.88;;;17.60;68.40;;;;;;5050700;28;20096;-65
2024/02/26 10:04:42;;;;;;;21.00;7.90;;;17.70;68.40;;;;;;5050739;28;20029;-64
2024/02/26 10:07:13;;;;;;;23.05;8.32;;;17.70;68.40;;;;;;5050766;28;20486;-64
2024/02/26 10:09:39;;;;;;;22.33;7.93;;;17.70;68.40;;;;;;5051066;28;20017;-64
2024/02/26 10:12:07;;;;;;;18.83;8.02;;;17.70;68.40;;;;;;5050670;28;20021;-64
2024/02/26 10:14:33;;;;;;;19.67;8.23;;;17.70;68.40;;;;;;5050611;28;20124;-64
2024/02/26 10:17:01;;;;;;;17.15;7.57;;;17.80;68.40;;;;;;5050343;28;20111;-64
2024/02/26 10:19:30;;;;;;;18.52;7.40;;;17.80;68.40;;;;;;5050345;28;20028;-64
2024/02/26 10:22:01;;;;;;;16.80;7.53;;;17.80;68.40;;;;;;5049965;28;20029;-64
2024/02/26 10:24:30;;;;;;;19.40;7.65;;;17.80;68.40;;;;;;5050447;28;20123;-64
2024/02/26 10:26:57;;;;;;;19.08;8.25;;;17.90;68.40;;;;;;5050394;28;20040;-64
2024/02/26 10:29:24;;;;;;;21.70;7.47;;;17.90;68.40;;;;;;5050142;28;20029;-65
2024/02/26 10:31:54;;;;;;;16.45;7.25;;;17.90;68.40;;;;;;5049938;28;20090;-64
2024/02/26 10:34:20;;;;;;;15.52;6.93;;;18.00;68.40;;;;;;5049961;28;20055;-64
2024/02/26 10:36:46;;;;;;;18.15;7.38;;;17.90;68.40;;;;;;5050185;28;20033;-64
2024/02/26 10:39:13;;;;;;;15.52;7.57;;;18.00;68.40;;;;;;5050143;28;20578;-64
2024/02/26 10:41:40;;;;;;;13.75;6.57;;;18.00;68.40;;;;;;5050048;28;20412;-64
2024/02/26 10:44:07;;;;;;;20.05;7.53;;;18.00;68.30;;;;;;5050276;28;20021;-63
2024/02/26 10:46:34;;;;;;;13.32;6.18;;;18.00;68.40;;;;;;5049975;28;20075;-64
2024/02/26 10:49:01;;;;;;;20.50;7.18;;;18.00;68.40;;;;;;5049932;28;20405;-63
2024/02/26 10:51:30;;;;;;;13.60;7.13;;;18.00;68.40;;;;;;5049532;28;20477;-63
2024/02/26 10:53:59;;;;;;;14.82;6.70;;;18.00;68.40;;;;;;5049437;28;20497;-62
2024/02/26 10:56:29;;;;;;;16.33;7.35;;;18.00;68.40;;;;;;5049669;28;20064;-64
2024/02/26 10:58:55;;;;;;;17.00;6.70;;;18.00;68.40;;;;;;5050039;28;20017;-64
2024/02/26 11:01:22;;;;;;;15.25;6.50;;;18.00;68.40;;;;;;5048170;28;20043;-64
2024/02/26 11:03:52;;;;;;;14.68;7.30;;;18.00;68.50;;;;;;5051733;28;20021;-63
2024/02/26 11:06:20;;;;;;;12.10;5.50;;;18.00;68.40;;;;;;5053328;28;20036;-63
2024/02/26 11:08:50;;;;;;;14.52;6.40;;;18.10;68.40;;;;;;5053548;28;20037;-63
2024/02/26 11:11:20;;;;;;;15.95;6.30;;;18.10;68.50;;;;;;5053359;28;20111;-64
2024/02/26 11:13:50;;;;;;;13.45;7.30;;;18.10;68.40;;;;;;5053392;28;20034;-64
2024/02/26 11:16:21;;;;;;;13.15;6.70;;;18.10;68.50;;;;;;5053502;28;20078;-64
2024/02/26 11:18:50;;;;;;;12.95;6.50;;;18.10;68.40;;;;;;5053497;28;20048;-64
2024/02/26 11:21:27;;;;;;;14.18;6.40;;;18.10;68.50;;;;;;5053735;28;20033;-64
2024/02/26 11:23:53;;;;;;;15.30;6.35;;;18.10;68.50;;;;;;5054577;28;20021;-63
2024/02/26 11:26:21;;;;;;;9.93;5.85;;;18.10;68.50;;;;;;5054031;28;20025;-64
2024/02/26 11:28:49;;;;;;;10.50;6.00;;;18.10;68.50;;;;;;5055230;28;20017;-64
2024/02/26 11:31:15;;;;;;;11.65;6.35;;;18.10;68.50;;;;;;5055721;28;20108;-63
2024/02/26 11:33:41;;;;;;;12.32;6.13;;;18.20;68.50;;;;;;5053557;28;20052;-64
2024/02/26 11:36:11;;;;;;;14.80;5.30;;;18.20;68.40;;;;;;5053288;28;20491;-63
2024/02/26 11:38:37;;;;;;;14.02;6.47;;;18.20;68.40;;;;;;5053628;28;20036;-64
2024/02/26 11:41:07;;;;;;;13.05;6.20;;;18.20;68.50;;;;;;5047293;28;20158;-64
2024/02/26 11:44:00;;;;;;;10.88;5.38;;;18.20;68.40;;;;;;5036047;28;20374;-63
2024/02/26 11:46:33;;;;;;;13.35;6.15;;;18.20;68.50;;;;;;5052896;28;20095;-63
2024/02/26 11:49:03;;;;;;;13.05;6.40;;;18.20;68.50;;;;;;5053668;28;20435;-63
2024/02/26 11:51:33;;;;;;;13.07;6.65;;;18.20;68.50;;;;;;5053494;28;20025;-64
2024/02/26 11:53:59;;;;;;;11.18;5.53;;;18.20;68.60;;;;;;5076809;23;20646;-61
2024/02/26 11:56:29;;;;;;;12.20;6.55;;;18.20;68.50;;;;;;5072245;28;20036;-63
2024/02/26 11:59:09;;;;;;;14.75;6.68;;;18.20;68.60;;;;;;5072830;28;20012;-62
2024/02/26 12:01:49;;;;;;;15.73;6.25;;;18.20;68.70;;;;;;5072567;28;20495;-62
2024/02/26 12:04:26;;;;;;;13.23;6.00;;;18.20;68.80;;;;;;5072875;28;20071;-63
2024/02/26 12:06:55;;;;;;;13.27;6.07;;;18.20;68.80;;;;;;5073503;28;20119;-63
2024/02/26 12:09:46;;;;;;;14.75;6.57;;;18.20;69.10;;;;;;5073069;28;20645;-63
2024/02/26 12:12:18;;;;;;;10.70;5.45;;;18.20;69.30;;;;;;5069090;28;20067;-67
2024/02/26 12:14:53;;;;;;;;;;;18.20;69.40;;;;;;5072826;28;20035;-67
2024/02/26 12:17:26;;;;;;;11.38;5.63;;;18.20;69.50;;;;;;5072903;28;19935;-67
2024/02/26 12:19:53;;;;;;;16.63;6.38;;;18.20;69.60;;;;;;5072756;28;20420;-66
2024/02/26 12:22:19;;;;;;;15.85;6.78;;;18.20;69.60;;;;;;5072602;28;20104;-66
2024/02/26 12:24:45;;;;;;;15.75;6.47;;;18.20;69.70;;;;;;5072671;28;20464;-67
2024/02/26 12:27:11;;;;;;;14.98;6.75;;;18.20;69.60;;;;;;5072503;28;20484;-66
2024/02/26 12:29:37;;;;;;;13.68;6.00;;;18.20;69.60;;;;;;5072511;28;20377;-66